Time;durP1;ratioP1;P1;durP2;ratioP2;P2;SDS_P1;SDS_P2;PMS_P1;PMS_P2;Temp;Humidity;BMP_temperature;BMP_pressure;BME280_temperature;BME280_humidity;BME280_pressure;Samples;Min_cycle;Max_cycle;Signal;HPM_P1;HPM_P2
2022/08/11 00:00:11;;;;;;;13.68;8.30;;;;;;;9.32;76.85;100745.33;1695707;84;21142;-59
2022/08/11 00:02:44;;;;;;;16.23;8.73;;;;;;;9.24;76.78;100743.36;1686867;83;20959;-58
2022/08/11 00:05:15;;;;;;;20.92;10.38;;;;;;;9.16;76.91;100744.42;1682996;82;20989;-58
2022/08/11 00:07:53;;;;;;;13.58;8.60;;;;;;;9.13;77.03;100744.51;1697530;84;20985;-59
2022/08/11 00:10:25;;;;;;;;;;;;;;;9.12;77.17;100745.37;1694454;83;21123;-59
2022/08/11 00:12:57;;;;;;;21.80;10.82;;;;;;;9.10;77.37;100735.47;1688052;84;21130;-59
2022/08/11 00:15:27;;;;;;;20.52;9.38;;;;;;;9.07;77.33;100739.88;1705337;83;20897;-58
2022/08/11 00:18:02;;;;;;;22.17;11.38;;;;;;;9.03;77.37;100737.80;1685206;83;20906;-58
2022/08/11 00:20:32;;;;;;;15.83;9.35;;;;;;;9.02;77.38;100741.31;1680878;84;20962;-58
2022/08/11 00:23:09;;;;;;;29.63;15.28;;;;;;;8.94;77.30;100738.04;1677817;84;20979;-58
2022/08/11 00:25:43;;;;;;;46.57;21.27;;;;;;;8.89;77.47;100729.47;1664907;84;21067;-59
2022/08/11 00:28:30;;;;;;;46.00;21.50;;;;;;;8.88;77.66;100731.23;1660198;84;21002;-59
2022/08/11 00:31:10;;;;;;;36.45;17.87;;;;;;;8.87;77.74;100733.85;1666834;83;20985;-58
2022/08/11 00:33:45;;;;;;;61.15;26.62;;;;;;;8.84;77.75;100733.48;1681951;84;20852;-58
2022/08/11 00:36:16;;;;;;;78.65;33.38;;;;;;;8.84;78.04;100730.02;1654532;85;20956;-59
2022/08/11 00:38:45;;;;;;;86.60;36.50;;;;;;;8.85;78.09;100727.81;1672777;84;21087;-58
2022/08/11 00:41:34;;;;;;;99.95;44.48;;;;;;;8.86;78.28;100737.36;1651618;85;20941;-59
2022/08/11 00:44:24;;;;;;;57.70;27.80;;;;;;;8.86;78.33;100733.45;1663653;85;21456;-58
2022/08/11 00:47:33;;;;;;;52.95;23.87;;;;;;;8.89;78.57;100732.08;1613418;87;21013;-58
2022/08/11 00:50:11;;;;;;;39.83;19.77;;;;;;;8.90;78.49;100738.98;1652650;85;20957;-58
2022/08/11 00:53:27;;;;;;;26.77;13.85;;;;;;;8.86;78.48;100732.16;1671545;84;21054;-58
2022/08/11 00:56:22;;;;;;;35.97;19.37;;;;;;;8.83;78.42;100736.14;1630011;86;21028;-58
2022/08/11 00:59:19;;;;;;;27.10;13.75;;;;;;;8.79;78.63;100736.62;1630271;86;20941;-58
2022/08/11 01:02:29;;;;;;;28.85;13.85;;;;;;;8.77;78.56;100737.14;1626751;86;22208;-58
2022/08/11 01:05:29;;;;;;;44.67;19.50;;;;;;;8.73;78.54;100740.23;1504031;93;21029;-58
2022/08/11 01:08:20;;;;;;;35.25;15.85;;;;;;;8.70;78.77;100745.52;1559863;90;21079;-59
2022/08/11 01:11:19;;;;;;;29.25;14.10;;;;;;;8.65;78.74;100749.97;1557631;90;21012;-58
2022/08/11 01:14:08;;;;;;;20.80;11.10;;;;;;;8.60;78.69;100746.64;1567731;90;20951;-58
2022/08/11 01:17:03;;;;;;;17.15;9.68;;;;;;;8.56;78.84;100752.80;1529008;93;21041;-59
2022/08/11 01:19:47;;;;;;;23.70;10.72;;;;;;;8.56;79.03;100752.80;1520771;93;21037;-59
2022/08/11 01:22:47;;;;;;;16.10;9.35;;;;;;;8.56;79.12;100754.09;1519492;93;21100;-58
2022/08/11 01:25:43;;;;;;;11.20;7.05;;;;;;;8.56;79.18;100752.80;1517765;93;21101;-58
2022/08/11 01:28:41;;;;;;;11.93;7.42;;;;;;;8.52;79.08;100751.16;1536279;92;21026;-58
2022/08/11 01:31:32;;;;;;;12.75;7.30;;;;;;;8.49;79.07;100744.73;1560155;91;21049;-59
2022/08/11 01:34:22;;;;;;;15.38;9.63;;;;;;;8.45;79.19;100743.06;1601623;88;20984;-59
2022/08/11 01:37:13;;;;;;;26.65;13.70;;;;;;;8.45;79.36;100745.22;1602903;88;21991;-59
2022/08/11 01:40:18;;;;;;;23.00;11.85;;;;;;;8.40;79.35;100744.91;1664665;84;20894;-58
2022/08/11 01:46:04;;;;;;;32.80;16.42;;;;;;;8.29;79.40;100747.28;1653175;84;21934;-59
2022/08/11 01:48:52;;;;;;;32.28;14.33;;;;;;;8.24;79.50;100742.63;1675323;84;20993;-58
2022/08/11 01:51:50;;;;;;;47.35;20.17;;;;;;;8.22;79.57;100741.78;1674294;84;21008;-58
2022/08/11 01:54:27;;;;;;;32.67;17.25;;;;;;;8.19;79.61;100758.77;1674898;84;20975;-58
2022/08/11 01:57:26;;;;;;;33.67;17.73;;;;;;;8.20;79.91;100757.86;1674110;84;20978;-58
2022/08/11 01:59:58;;;;;;;41.75;19.85;;;;;;;8.21;79.92;100755.70;1664116;84;20922;-58
2022/08/11 02:02:53;;;;;;;39.15;19.85;;;;;;;8.22;80.09;100753.50;1665820;84;21487;-59
2022/08/11 02:05:43;;;;;;;46.80;21.55;;;;;;;8.23;80.21;100747.42;1668938;83;21145;-59
2022/08/11 02:08:42;;;;;;;35.68;17.15;;;;;;;8.24;80.14;100751.73;1671542;83;21513;-59
2022/08/11 02:11:30;;;;;;;42.20;19.32;;;;;;;8.23;80.17;100751.33;1669213;84;20972;-59
2022/08/11 02:14:22;;;;;;;32.75;17.12;;;;;;;8.23;80.28;100751.33;1688819;83;20913;-58
2022/08/11 02:17:12;;;;;;;35.48;17.85;;;;;;;8.20;80.23;100753.96;1672952;84;21479;-59
2022/08/11 02:26:23;;;;;;;14.00;9.38;;;;;;;8.24;80.69;100759.53;1666355;84;20953;-58
2022/08/11 02:29:32;;;;;;;12.30;8.55;;;;;;;8.20;80.46;100754.41;1655037;84;21013;-58
2022/08/11 02:35:14;;;;;;;16.97;11.50;;;;;;;8.08;80.63;100760.73;1676595;83;20942;-59
2022/08/11 02:38:07;;;;;;;21.42;7.95;;;;;;;8.08;80.72;100758.13;1682480;84;20933;-58
2022/08/11 02:40:51;;;;;;;12.23;8.90;;;;;;;8.02;80.61;100760.86;1673080;85;21348;-58
2022/08/11 02:43:51;;;;;;;11.85;8.30;;;;;;;7.95;80.54;100756.66;1656439;85;20913;-58
2022/08/11 02:46:28;;;;;;;14.40;9.48;;;;;;;7.90;80.62;100758.48;1620998;87;20991;-58
2022/08/11 02:52:06;;;;;;;22.22;9.20;;;;;;;7.85;80.92;100763.34;1646584;85;21008;-58
2022/08/11 02:54:53;;;;;;;21.52;8.55;;;;;;;7.88;81.11;100766.78;1663374;85;20954;-59
2022/08/11 02:57:31;;;;;;;53.50;13.25;;;;;;;7.90;81.26;100761.09;1646199;85;20940;-58
2022/08/11 03:00:13;;;;;;;41.30;10.90;;;;;;;7.95;81.44;100764.46;1671723;84;20961;-59
2022/08/11 03:03:06;;;;;;;27.95;9.90;;;;;;;7.97;81.45;100768.75;1678242;83;21860;-58
2022/08/11 03:05:59;;;;;;;104.38;14.75;;;;;;;7.99;81.54;100766.13;1669122;83;20970;-59
2022/08/11 03:08:38;;;;;;;55.58;12.68;;;;;;;8.01;81.53;100764.33;1658092;85;20907;-58
2022/08/11 03:17:34;;;;;;;20.68;10.25;;;;;;;8.09;81.62;100770.23;1651326;86;21077;-59
2022/08/11 03:20:17;;;;;;;25.45;11.03;;;;;;;8.09;81.66;100767.64;1649348;86;20927;-59
2022/08/11 03:23:27;;;;;;;7.55;6.08;;;;;;;8.10;81.71;100764.62;1643276;85;20975;-59
2022/08/11 03:26:10;;;;;;;19.45;8.23;;;;;;;8.09;81.67;100762.44;1652033;86;21011;-59
2022/08/11 03:28:51;;;;;;;13.10;7.50;;;;;;;8.10;81.69;100761.56;1648277;85;21000;-58
2022/08/11 03:31:34;;;;;;;62.23;10.82;;;;;;;8.08;81.64;100765.94;1657534;85;21011;-59
2022/08/11 03:34:12;;;;;;;22.22;7.80;;;;;;;8.13;81.81;100765.41;1584297;89;21490;-59
2022/08/11 03:36:46;;;;;;;21.15;6.30;;;;;;;8.14;81.67;100763.20;1540561;91;21016;-59
2022/08/11 03:39:43;;;;;;;13.72;6.47;;;;;;;8.14;81.56;100759.75;1560100;91;21685;-59
2022/08/11 03:42:31;;;;;;;;;;;;;;;8.16;81.68;100756.23;1565759;91;21053;-59
2022/08/11 03:45:37;;;;;;;21.20;6.28;;;;;;;8.25;81.89;100755.18;1559923;90;20972;-59
2022/08/11 03:48:40;;;;;;;107.78;6.80;;;;;;;8.34;81.98;100755.42;1588338;88;21517;-60
2022/08/11 03:51:24;;;;;;;84.17;7.60;;;;;;;8.46;82.01;100756.51;1585183;89;21494;-59
2022/08/11 03:54:01;;;;;;;98.90;8.43;;;;;;;8.59;81.95;100747.52;1629931;86;20960;-58
2022/08/11 03:56:59;;;;;;;125.82;7.97;;;;;;;8.78;82.00;100752.31;1628643;87;21432;-59
2022/08/11 04:00:12;;;;;;;90.47;6.35;;;;;;;8.93;81.88;100755.84;1589396;89;21514;-58
2022/08/11 04:02:59;;;;;;;89.97;5.60;;;;;;;9.06;81.91;100758.56;1585929;89;20998;-58
2022/08/11 04:06:10;;;;;;;24.07;4.97;;;;;;;9.21;82.03;100762.98;1585885;89;21492;-59
2022/08/11 04:09:18;;;;;;;31.70;5.17;;;;;;;9.37;82.11;100763.86;1583059;89;20926;-59
2022/08/11 04:12:20;;;;;;;39.95;5.42;;;;;;;9.53;82.13;100759.11;1595960;88;21755;-59
2022/08/11 04:19:13;;;;;;;74.20;6.03;;;;;;;10.04;82.59;100766.40;1603213;88;21519;-59
2022/08/11 04:22:18;;;;;;;55.15;6.17;;;;;;;10.51;82.46;100762.03;1609765;87;20938;-60
2022/08/11 04:25:25;;;;;;;66.40;5.08;;;;;;;11.09;82.74;100759.32;1612784;87;20987;-60
2022/08/11 04:28:18;;;;;;;35.10;4.80;;;;;;;11.94;82.49;100766.47;1609941;88;21008;-60
2022/08/11 04:31:32;;;;;;;21.68;5.85;;;;;;;12.60;81.87;100760.89;1616035;88;21158;-60
2022/08/11 04:34:36;;;;;;;31.65;4.72;;;;;;;13.27;82.05;100757.81;1613080;87;21025;-61
2022/08/11 04:37:41;;;;;;;9.88;4.10;;;;;;;14.40;82.24;100752.80;1655137;84;21387;-61
2022/08/11 04:40:47;;;;;;;8.75;4.58;;;;;;;15.40;81.15;100744.00;1660753;84;20902;-61
2022/08/11 04:43:38;;;;;;;32.13;5.15;;;;;;;16.14;80.64;100749.41;1660309;84;20977;-61
2022/08/11 04:46:29;;;;;;;34.90;6.95;;;;;;;17.11;80.96;100751.00;1655662;85;21636;-61
2022/08/11 05:02:36;;;;;;;21.67;12.00;;;;;;;20.72;78.54;100725.54;1664304;85;21064;-62
2022/08/11 05:05:39;;;;;;;28.55;13.72;;;;;;;22.43;79.39;100721.23;1679243;84;20906;-61
2022/08/11 05:08:14;;;;;;;29.92;11.85;;;;;;;23.74;77.83;100726.34;1684851;84;20936;-61
2022/08/11 05:10:58;;;;;;;37.10;12.82;;;;;;;24.50;76.25;100719.59;1686186;83;20934;-62
2022/08/11 05:36:53;;;;;;;13.20;6.20;;;;;;;29.74;68.24;100698.88;1667302;85;20949;-64
2022/08/11 05:56:53;;;;;;;13.85;3.50;;;;;;;29.89;63.59;100697.14;1658887;85;20949;-62
2022/08/11 05:59:22;;;;;;;24.87;5.25;;;;;;;30.04;63.09;100698.08;1660504;85;21327;-62
2022/08/11 06:01:50;;;;;;;9.08;4.47;;;;;;;30.31;62.48;100699.48;1677961;84;20957;-63
2022/08/11 06:04:21;;;;;;;4.78;2.77;;;;;;;30.63;62.31;100695.40;1681042;83;20995;-62
2022/08/11 06:06:55;;;;;;;9.68;3.40;;;;;;;31.07;61.35;100694.73;1682937;83;20965;-63
2022/08/11 06:09:29;;;;;;;14.80;3.27;;;;;;;31.01;59.86;100698.17;1675775;84;20978;-63
2022/08/11 06:12:07;;;;;;;9.90;3.15;;;;;;;30.86;59.69;100705.68;1673938;84;22170;-63
2022/08/11 06:14:41;;;;;;;6.03;2.70;;;;;;;30.96;58.93;100706.28;1667961;84;21009;-63
2022/08/11 06:17:15;;;;;;;10.30;2.80;;;;;;;30.91;58.23;100710.55;1668596;84;20960;-63
2022/08/11 06:19:47;;;;;;;7.40;3.22;;;;;;;30.68;57.53;100715.92;1670919;85;21204;-63
2022/08/11 06:22:19;;;;;;;13.55;2.65;;;;;;;30.69;57.39;100713.55;1675144;84;21048;-62
2022/08/11 06:24:53;;;;;;;8.05;2.40;;;;;;;30.74;56.61;100713.84;1666801;85;21163;-62
2022/08/11 06:27:26;;;;;;;7.20;2.37;;;;;;;30.62;55.97;100713.95;1672700;85;20904;-62
2022/08/11 06:29:54;;;;;;;23.20;12.98;;;;;;;30.38;55.43;100704.98;1667323;85;20931;-62
2022/08/11 06:32:28;;;;;;;6.50;2.40;;;;;;;30.43;55.11;100709.85;1646737;85;20942;-64
2022/08/11 06:35:31;;;;;;;8.08;2.00;;;;;;;30.71;55.05;100720.95;1648947;85;21490;-63
2022/08/11 06:38:10;;;;;;;5.53;1.80;;;;;;;30.75;54.42;100711.47;1651970;84;20946;-62
2022/08/11 06:44:13;;;;;;;5.28;1.75;;;;;;;31.10;53.84;100716.78;1672925;85;21463;-64
2022/08/11 06:46:50;;;;;;;3.58;1.20;;;;;;;30.66;51.27;100720.64;1672498;85;20961;-65
2022/08/11 06:52:12;;;;;;;2.22;1.02;;;;;;;29.15;50.64;100721.48;1668241;85;21066;-64
2022/08/11 06:54:43;;;;;;;1.85;1.00;;;;;;;28.97;49.50;100710.89;1671573;84;20972;-64
2022/08/11 07:02:59;;;;;;;6.28;1.50;;;;;;;29.07;48.88;100724.18;1677852;84;21512;-64
2022/08/11 07:05:50;;;;;;;4.22;1.45;;;;;;;29.26;49.52;100719.47;1648609;85;21075;-64
2022/08/11 07:28:54;;;;;;;1.72;0.90;;;;;;;29.11;47.23;100720.16;1624882;87;20986;-63
2022/08/11 07:29:00;;;;;;;1.80;0.72;;;;;;;28.13;45.19;100730.69;1643559;85;21895;-62
2022/08/11 07:31:49;;;;;;;1.47;0.60;;;;;;;27.45;45.16;100728.30;1660595;84;20925;-61
2022/08/11 07:34:35;;;;;;;5.30;1.10;;;;;;;26.98;44.99;100727.25;1679944;83;21809;-61
2022/08/11 07:37:18;;;;;;;2.37;1.20;;;;;;;26.62;44.65;100725.56;1669756;84;21626;-61
2022/08/11 07:39:52;;;;;;;8.00;1.37;;;;;;;25.96;44.74;100726.61;1669540;84;20945;-60
2022/08/11 07:42:24;;;;;;;2.60;1.25;;;;;;;24.91;44.97;100742.20;1672794;84;21673;-61
2022/08/11 07:53:13;;;;;;;4.72;1.50;;;;;;;23.42;46.91;100744.11;1672687;83;20981;-62
2022/08/11 07:55:42;;;;;;;1.65;1.37;;;;;;;23.67;47.25;100742.02;1657455;85;21484;-62
2022/08/11 08:17:56;;;;;;;2.37;1.10;;;;;;;24.37;46.29;100730.14;1660513;84;20941;-61
2022/08/11 08:20:23;;;;;;;1.87;0.70;;;;;;;24.45;46.35;100731.66;1639108;85;21520;-61
2022/08/11 08:22:55;;;;;;;1.32;0.88;;;;;;;24.47;45.58;100735.05;1643675;86;20977;-61
2022/08/11 08:25:38;;;;;;;1.07;0.80;;;;;;;24.40;45.23;100740.56;1645199;86;20985;-64
2022/08/11 08:28:10;;;;;;;2.45;1.17;;;;;;;24.52;45.09;100734.15;1624877;86;21235;-63
2022/08/11 08:30:47;;;;;;;0.93;0.70;;;;;;;24.55;44.79;100737.88;1659808;85;20985;-62
2022/08/11 08:33:23;;;;;;;2.10;1.10;;;;;;;24.50;44.45;100737.44;1621437;87;20963;-61
2022/08/11 08:36:10;;;;;;;2.58;1.10;;;;;;;24.45;44.19;100738.34;1634391;87;20935;-62
2022/08/11 08:38:25;;;;;;;1.72;0.90;;;;;;;24.44;43.98;100733.98;1622680;87;21050;-62
2022/08/11 08:40:54;;;;;;;2.60;1.10;;;;;;;24.47;43.95;100729.70;1622231;86;21211;-61
2022/08/11 08:43:25;;;;;;;2.25;1.10;;;;;;;24.47;43.60;100729.70;1654640;86;21453;-61
2022/08/11 08:45:55;;;;;;;0.85;0.80;;;;;;;24.48;43.47;100731.41;1599389;88;21018;-61
2022/08/11 08:48:25;;;;;;;3.10;0.78;;;;;;;24.49;43.36;100728.59;1654837;86;20951;-61
2022/08/11 08:53:52;;;;;;;1.87;1.10;;;;;;;24.66;43.26;100721.73;1618744;87;21073;-61
2022/08/11 08:56:26;;;;;;;1.80;1.20;;;;;;;24.77;43.09;100720.25;1651823;85;20979;-62
2022/08/11 08:58:54;;;;;;;6.70;1.05;;;;;;;24.59;42.93;100721.95;1624638;87;20970;-61
2022/08/11 09:01:24;;;;;;;1.15;0.95;;;;;;;24.52;42.95;100715.45;1644362;86;20986;-62
2022/08/11 09:03:51;;;;;;;2.12;1.00;;;;;;;24.56;43.25;100715.52;1644678;85;20982;-61
2022/08/11 09:06:19;;;;;;;4.25;1.32;;;;;;;24.74;43.29;100716.53;1643042;85;21896;-62
2022/08/11 09:08:46;;;;;;;3.90;1.05;;;;;;;24.60;42.52;100708.94;1636919;84;21024;-63
2022/08/11 09:14:02;;;;;;;5.42;1.15;;;;;;;24.38;43.53;100706.48;1641441;85;21056;-62
2022/08/11 09:16:29;;;;;;;3.52;1.05;;;;;;;24.59;43.20;100708.59;1652108;85;21018;-65
2022/08/11 09:18:59;;;;;;;2.62;1.20;;;;;;;24.52;42.72;100706.12;1650841;85;21046;-62
2022/08/11 09:21:25;;;;;;;2.95;1.42;;;;;;;24.45;42.49;100723.66;1651770;85;20969;-62
2022/08/11 09:27:12;;;;;;;3.02;1.27;;;;;;;23.73;42.18;100702.84;1649235;85;21004;-62
2022/08/11 09:29:13;;;;;;;;;;;;;;;23.52;42.46;100703.33;1643997;85;21022;-63
2022/08/11 09:31:41;;;;;;;3.35;1.98;;;;;;;23.74;42.76;100705.86;1656559;85;21094;-61
2022/08/11 09:34:10;;;;;;;5.78;1.20;;;;;;;23.98;42.50;100699.37;1652967;85;21598;-61
2022/08/11 09:42:21;;;;;;;4.50;1.45;;;;;;;24.39;42.25;100703.66;1654524;85;20955;-61
2022/08/11 09:44:54;;;;;;;2.37;1.20;;;;;;;24.42;42.23;100697.20;1655291;85;21493;-63
2022/08/11 09:47:29;;;;;;;3.45;1.20;;;;;;;24.29;41.95;100692.98;1662130;85;21002;-62
2022/08/11 09:50:00;;;;;;;1.65;1.30;;;;;;;24.25;41.82;100694.72;1637237;85;21950;-61
2022/08/11 09:52:35;;;;;;;2.83;1.12;;;;;;;24.27;41.08;100697.61;1646200;85;20962;-62
2022/08/11 09:55:10;;;;;;;3.72;1.35;;;;;;;24.35;41.51;100688.42;1656056;85;20985;-62
2022/08/11 10:00:40;;;;;;;1.30;0.80;;;;;;;24.19;41.57;100681.44;1655013;85;20934;-61
2022/08/11 10:03:09;;;;;;;3.00;0.88;;;;;;;24.34;41.56;100674.73;1657412;85;20971;-61
2022/08/11 10:08:28;;;;;;;5.10;1.20;;;;;;;24.45;41.02;100684.48;1658445;85;20954;-61
2022/08/11 10:10:56;;;;;;;2.05;0.80;;;;;;;24.44;40.97;100681.94;1649528;85;21121;-60
2022/08/11 10:15:32;;;;;;;1.80;1.00;;;;;;;24.50;40.95;100674.20;1651654;85;20947;-61
2022/08/11 10:16:05;;;;;;;1.32;1.00;;;;;;;24.64;40.67;100672.95;1650401;85;21015;-59
2022/08/11 10:18:51;;;;;;;2.02;1.10;;;;;;;24.58;40.52;100673.52;1650730;85;21007;-61
2022/08/11 10:21:39;;;;;;;0.98;0.82;;;;;;;24.68;40.68;100673.53;1639968;85;21604;-61
2022/08/11 10:26:53;;;;;;;;;;;;;;;24.88;40.32;100666.35;1652511;85;21461;-61
2022/08/11 10:35:15;;;;;;;3.15;0.95;;;;;;;24.58;39.44;100657.50;1668402;84;20994;-61
2022/08/11 10:37:45;;;;;;;1.67;0.75;;;;;;;24.48;39.18;100652.16;1653497;85;21118;-61
2022/08/11 10:40:21;;;;;;;2.75;0.80;;;;;;;24.57;39.32;100653.15;1659799;85;20945;-61
2022/08/11 10:43:12;;;;;;;1.75;1.00;;;;;;;24.66;38.61;100646.95;1652066;85;20990;-61
2022/08/11 10:48:28;;;;;;;4.05;1.27;;;;;;;24.26;38.84;100645.23;1656428;85;20970;-61
2022/08/11 10:51:13;;;;;;;2.05;0.85;;;;;;;24.32;38.81;100647.34;1667671;85;21258;-61
2022/08/11 10:59:26;;;;;;;1.45;0.65;;;;;;;24.71;37.96;100650.55;1653741;85;20976;-61
2022/08/11 11:01:54;;;;;;;3.58;0.90;;;;;;;24.49;37.43;100655.67;1652741;85;20993;-61
2022/08/11 11:04:29;;;;;;;1.15;0.90;;;;;;;24.22;37.93;100650.97;1660751;85;21023;-61
2022/08/11 11:07:12;;;;;;;1.17;1.02;;;;;;;24.21;38.10;100639.45;1657794;84;20973;-61
2022/08/11 11:09:49;;;;;;;3.17;0.93;;;;;;;24.27;38.12;100643.39;1665267;83;20935;-61
2022/08/11 11:18:24;;;;;;;0.75;0.60;;;;;;;24.42;37.93;100633.14;1689127;83;21208;-61
2022/08/11 11:20:56;;;;;;;1.10;0.73;;;;;;;24.45;37.63;100624.89;1661614;84;21630;-61
2022/08/11 11:23:52;;;;;;;1.77;0.72;;;;;;;24.41;37.84;100623.46;1631823;86;20909;-61
2022/08/11 11:26:54;;;;;;;1.65;0.93;;;;;;;24.46;37.79;100626.59;1675884;84;20930;-61
2022/08/11 11:29:35;;;;;;;1.62;0.70;;;;;;;24.62;37.63;100632.68;1632297;86;21010;-61
2022/08/11 11:32:37;;;;;;;4.00;0.95;;;;;;;24.60;37.61;100623.50;1575631;89;21066;-61
2022/08/11 11:35:50;;;;;;;1.80;0.70;;;;;;;24.73;37.29;100629.40;1570551;88;20969;-61
2022/08/11 11:38:18;;;;;;;1.20;0.65;;;;;;;24.88;37.58;100626.28;1583700;88;20985;-61
2022/08/11 11:41:23;;;;;;;4.55;0.90;;;;;;;24.88;37.22;100626.28;1596933;88;20983;-61
2022/08/11 11:43:16;;;;;;;0.80;0.80;;;;;;;24.83;37.17;100625.86;1607136;89;21697;-60
2022/08/11 11:45:43;;;;;;;1.20;0.70;;;;;;;24.89;37.22;100630.13;1609375;87;21217;-60
2022/08/11 11:48:11;;;;;;;2.30;0.75;;;;;;;24.90;36.81;100629.63;1578247;88;20975;-62
2022/08/11 11:50:40;;;;;;;3.58;1.02;;;;;;;24.79;36.85;100634.16;1574709;89;20985;-61
2022/08/11 11:53:09;;;;;;;0.90;0.70;;;;;;;24.71;36.34;100626.02;1599229;89;20976;-62
2022/08/11 11:55:37;;;;;;;2.95;0.75;;;;;;;24.58;36.28;100627.28;1572679;91;20993;-62
2022/08/11 12:03:39;;;;;;;1.12;0.62;;;;;;;24.44;36.00;100625.88;1585477;88;21527;-62
2022/08/11 12:06:09;;;;;;;5.58;0.98;;;;;;;24.41;35.94;100628.80;1598280;88;21056;-62
2022/08/11 12:08:39;;;;;;;23.90;2.42;;;;;;;24.43;35.94;100618.84;1571424;85;20943;-62
2022/08/11 12:13:59;;;;;;;4.28;0.80;;;;;;;24.51;35.96;100619.02;1658740;84;21732;-62
2022/08/11 12:16:26;;;;;;;1.17;0.90;;;;;;;24.53;35.51;100626.36;1667255;85;20956;-62
2022/08/11 12:18:58;;;;;;;3.55;0.75;;;;;;;24.37;35.37;100620.70;1642451;86;20880;-62
2022/08/11 12:21:27;;;;;;;1.45;0.80;;;;;;;24.25;35.29;100624.84;1687752;84;21544;-63
2022/08/11 12:29:31;;;;;;;4.62;1.00;;;;;;;24.26;35.20;100615.88;1681099;83;20944;-63
2022/08/11 12:31:59;;;;;;;1.37;0.70;;;;;;;24.23;35.23;100610.81;1686714;83;20994;-62
2022/08/11 12:34:27;;;;;;;3.08;0.90;;;;;;;24.18;35.32;100605.05;1682282;83;20898;-62
2022/08/11 12:37:02;;;;;;;1.32;0.70;;;;;;;24.25;35.22;100603.49;1680053;83;21080;-62
2022/08/11 12:45:26;;;;;;;2.05;0.88;;;;;;;24.16;34.99;100621.68;1675677;84;20939;-61
2022/08/11 12:54:01;;;;;;;1.05;0.60;;;;;;;24.04;35.15;100605.45;1681941;84;21005;-62
2022/08/11 13:04:51;;;;;;;1.30;0.67;;;;;;;24.02;35.08;100594.91;1689528;84;21832;-62
2022/08/11 13:07:18;;;;;;;3.50;0.60;;;;;;;24.05;34.78;100591.12;1683020;84;20934;-62
2022/08/11 13:09:46;;;;;;;1.00;0.68;;;;;;;23.95;35.01;100595.63;1696012;83;20974;-62
2022/08/11 13:15:04;;;;;;;0.98;0.60;;;;;;;24.10;35.21;100583.55;1670718;84;21585;-62
2022/08/11 13:17:33;;;;;;;1.22;0.57;;;;;;;24.06;35.27;100588.83;1679415;84;21051;-62
2022/08/11 13:20:01;;;;;;;1.22;0.60;;;;;;;23.98;35.18;100587.34;1681844;83;20903;-62
2022/08/11 13:22:30;;;;;;;3.65;0.60;;;;;;;23.83;34.53;100574.38;1691319;83;20997;-62
2022/08/11 13:24:58;;;;;;;1.07;0.75;;;;;;;23.73;35.09;100576.19;1657759;85;20891;-62
2022/08/11 13:27:26;;;;;;;1.15;0.75;;;;;;;23.78;35.27;100571.30;1648627;84;20963;-63
2022/08/11 13:31:09;;;;;;;0.45;0.45;;;;;;;23.81;35.17;100575.02;1654365;85;21281;-63
2022/08/11 13:32:25;;;;;;;1.55;0.62;;;;;;;23.85;35.23;100569.75;1649783;85;20972;-62
2022/08/11 13:34:51;;;;;;;2.05;0.70;;;;;;;23.90;35.28;100567.52;1651986;85;20975;-64
2022/08/11 13:37:20;;;;;;;2.77;0.68;;;;;;;23.83;34.86;100573.04;1662503;84;20965;-62
2022/08/11 13:39:47;;;;;;;0.70;0.60;;;;;;;23.75;35.32;100571.58;1652854;84;20947;-62
2022/08/11 13:42:15;;;;;;;;;;;;;;;23.84;35.48;100568.08;1650185;85;21891;-62
2022/08/11 13:44:43;;;;;;;1.30;0.60;;;;;;;23.92;35.38;100563.86;1649625;85;20468;-62
2022/08/11 13:47:12;;;;;;;1.62;0.80;;;;;;;23.89;35.38;100559.18;1674980;83;20997;-62
2022/08/11 13:49:41;;;;;;;2.83;0.62;;;;;;;23.88;35.52;100556.14;1689569;83;21507;-61
2022/08/11 13:52:14;;;;;;;2.37;0.75;;;;;;;23.96;35.59;100545.28;1653519;85;21525;-62
2022/08/11 13:54:43;;;;;;;1.02;0.70;;;;;;;23.94;35.53;100545.91;1651643;84;21147;-62
2022/08/11 13:57:14;;;;;;;1.55;0.70;;;;;;;23.93;35.55;100544.23;1681067;84;20973;-62
2022/08/11 13:59:45;;;;;;;239.48;17.23;;;;;;;23.84;35.51;100538.74;1678119;84;21408;-62
2022/08/11 14:02:16;;;;;;;1.82;0.80;;;;;;;23.76;35.59;100549.25;1638816;85;21475;-62
2022/08/11 14:04:50;;;;;;;0.93;0.50;;;;;;;23.63;35.61;100549.95;1676483;84;21562;-61
2022/08/11 14:07:21;;;;;;;1.82;0.60;;;;;;;23.69;35.80;100542.73;1687919;84;21040;-62
2022/08/11 14:09:55;;;;;;;1.50;0.70;;;;;;;23.68;35.44;100543.73;1679938;84;20965;-62
2022/08/11 14:15:23;;;;;;;2.62;0.78;;;;;;;23.53;35.74;100545.11;1651865;85;21005;-60
2022/08/11 14:18:06;;;;;;;0.88;0.57;;;;;;;23.43;35.69;100532.58;1643525;85;21012;-60
2022/08/11 14:23:41;;;;;;;0.98;0.60;;;;;;;23.51;35.80;100535.90;1667835;85;20987;-61
2022/08/11 14:26:27;;;;;;;1.90;0.70;;;;;;;23.37;35.94;100526.46;1671698;84;20918;-60
2022/08/11 14:29:06;;;;;;;1.45;0.70;;;;;;;23.37;36.13;100533.13;1681050;84;20966;-60
2022/08/11 14:31:37;;;;;;;1.75;0.75;;;;;;;23.46;36.10;100524.30;1672476;85;20946;-60
2022/08/11 14:34:07;;;;;;;0.78;0.60;;;;;;;23.57;36.09;100530.02;1674374;84;21555;-60
2022/08/11 14:36:44;;;;;;;1.50;0.70;;;;;;;23.50;36.05;100520.03;1670236;84;20916;-60
2022/08/11 14:39:17;;;;;;;1.53;0.70;;;;;;;23.49;36.16;100527.69;1663488;85;21660;-60
2022/08/11 14:47:28;;;;;;;1.77;0.80;;;;;;;23.48;36.00;100528.67;1662866;84;21215;-60
2022/08/11 14:49:56;;;;;;;0.80;0.60;;;;;;;23.48;36.01;100523.34;1664983;85;21005;-61
2022/08/11 14:52:24;;;;;;;1.17;0.60;;;;;;;23.47;36.00;100523.84;1662313;85;20962;-61
2022/08/11 14:57:40;;;;;;;0.78;0.50;;;;;;;23.33;35.74;100513.07;1669840;85;21013;-60
2022/08/11 15:00:11;;;;;;;1.25;0.60;;;;;;;23.37;35.75;100513.14;1671592;84;21003;-61
2022/08/11 15:05:25;;;;;;;0.60;0.53;;;;;;;23.39;35.72;100513.85;1688457;84;20894;-60
2022/08/11 15:07:55;;;;;;;2.85;0.93;;;;;;;23.37;35.66;100511.80;1672519;85;20961;-60
2022/08/11 15:10:22;;;;;;;1.25;0.80;;;;;;;23.32;35.66;100515.36;1680163;83;20949;-60
2022/08/11 15:12:50;;;;;;;0.68;0.50;;;;;;;23.31;35.70;100511.02;1705407;82;21741;-60
2022/08/11 15:18:05;;;;;;;;;;;;;;;23.34;35.87;100519.23;1665851;85;20926;-61
2022/08/11 15:37:24;;;;;;;3.27;0.93;;;;;;;23.18;36.03;100509.08;1669098;84;21581;-60
2022/08/11 15:46:26;;;;;;;1.90;0.60;;;;;;;22.90;36.84;100514.11;1682450;84;20899;-60
2022/08/11 15:49:03;;;;;;;1.25;0.57;;;;;;;22.88;36.92;100501.44;1694068;84;20929;-60
2022/08/11 15:51:54;;;;;;;2.20;0.75;;;;;;;22.88;37.07;100500.11;1695753;83;20949;-61
2022/08/11 15:54:25;;;;;;;0.95;0.60;;;;;;;22.79;37.12;100522.17;1678027;82;21891;-61
2022/08/11 15:56:53;;;;;;;1.75;0.80;;;;;;;22.74;37.23;100519.05;1660658;85;20941;-61
2022/08/11 16:05:01;;;;;;;2.47;0.70;;;;;;;22.56;37.91;100515.66;1648479;85;20964;-60
2022/08/11 16:07:34;;;;;;;1.30;0.60;;;;;;;22.54;38.02;100513.61;1695249;84;21018;-60
2022/08/11 16:10:08;;;;;;;1.02;0.55;;;;;;;22.48;38.27;100515.47;1689386;84;20910;-60
2022/08/11 16:18:39;;;;;;;0.90;0.57;;;;;;;22.18;38.60;100511.40;1675222;85;21487;-60
2022/08/11 16:20:57;;;;;;;0.65;0.53;;;;;;;22.15;38.75;100515.61;1664466;84;21117;-60
2022/08/11 16:23:27;;;;;;;4.00;0.82;;;;;;;22.01;39.00;100517.59;1667894;85;20922;-60
2022/08/11 16:25:56;;;;;;;2.75;0.85;;;;;;;21.96;39.18;100521.14;1664645;84;20840;-60
2022/08/11 16:28:26;;;;;;;2.90;0.78;;;;;;;21.89;39.47;100509.31;1677875;85;20882;-60
2022/08/11 16:30:55;;;;;;;3.00;0.80;;;;;;;21.85;39.60;100505.23;1678865;85;20918;-60
2022/08/11 16:33:25;;;;;;;0.85;0.60;;;;;;;21.81;39.88;100509.09;1672069;85;20936;-60
2022/08/11 16:38:42;;;;;;;3.58;0.85;;;;;;;21.64;40.46;100513.12;1665689;84;20903;-61
2022/08/11 16:41:13;;;;;;;4.87;0.85;;;;;;;21.56;40.64;100505.77;1662938;85;21022;-61
2022/08/11 16:49:32;;;;;;;5.25;1.30;;;;;;;21.31;41.37;100508.67;1675036;85;20920;-61
2022/08/11 16:52:02;;;;;;;2.55;1.00;;;;;;;21.26;41.60;100509.52;1659215;85;20918;-61
2022/08/11 16:54:32;;;;;;;1.77;0.70;;;;;;;21.20;41.75;100505.08;1670345;83;21005;-60
2022/08/11 16:59:53;;;;;;;1.10;0.82;;;;;;;21.07;42.00;100501.70;1662481;85;21072;-61